sensor_id;sensor_type;location;lat;lon;timestamp;temperature;humidity
45715;DHT22;31430;61.646;24.704;2022-11-20T00:01:29;-3.70;99.90
45715;DHT22;31430;61.646;24.704;2022-11-20T00:03:56;-3.70;99.90
45715;DHT22;31430;61.646;24.704;2022-11-20T00:06:23;-3.70;99.90
45715;DHT22;31430;61.646;24.704;2022-11-20T00:08:50;-3.70;99.90
45715;DHT22;31430;61.646;24.704;2022-11-20T00:11:20;-3.80;99.90
45715;DHT22;31430;61.646;24.704;2022-11-20T00:13:48;-3.80;99.90
45715;DHT22;31430;61.646;24.704;2022-11-20T00:16:17;-3.80;99.90
45715;DHT22;31430;61.646;24.704;2022-11-20T00:18:43;-3.80;99.90
45715;DHT22;31430;61.646;24.704;2022-11-20T00:21:17;-3.80;99.90
45715;DHT22;31430;61.646;24.704;2022-11-20T00:23:43;-3.80;99.90
45715;DHT22;31430;61.646;24.704;2022-11-20T00:26:15;-3.90;99.90
45715;DHT22;31430;61.646;24.704;2022-11-20T00:28:42;-3.90;99.90
45715;DHT22;31430;61.646;24.704;2022-11-20T00:31:12;-3.90;99.90
45715;DHT22;31430;61.646;24.704;2022-11-20T00:33:38;-3.90;99.90
45715;DHT22;31430;61.646;24.704;2022-11-20T00:36:06;-3.80;99.90
45715;DHT22;31430;61.646;24.704;2022-11-20T00:38:32;-3.80;99.90
45715;DHT22;31430;61.646;24.704;2022-11-20T00:40:59;-3.80;99.90
45715;DHT22;31430;61.646;24.704;2022-11-20T00:43:25;-3.80;99.90
45715;DHT22;31430;61.646;24.704;2022-11-20T00:45:57;-3.90;99.90
45715;DHT22;31430;61.646;24.704;2022-11-20T00:48:23;-3.80;99.90
45715;DHT22;31430;61.646;24.704;2022-11-20T00:50:48;-3.80;99.90
45715;DHT22;31430;61.646;24.704;2022-11-20T00:53:14;-3.80;99.90
45715;DHT22;31430;61.646;24.704;2022-11-20T00:55:40;-3.80;99.90
45715;DHT22;31430;61.646;24.704;2022-11-20T00:58:06;-3.90;99.90
45715;DHT22;31430;61.646;24.704;2022-11-20T01:00:31;-3.90;99.90
45715;DHT22;31430;61.646;24.704;2022-11-20T01:02:57;-3.90;99.90
45715;DHT22;31430;61.646;24.704;2022-11-20T01:05:23;-3.80;99.90
45715;DHT22;31430;61.646;24.704;2022-11-20T01:07:48;-3.80;99.90
45715;DHT22;31430;61.646;24.704;2022-11-20T01:10:14;-3.80;99.90
45715;DHT22;31430;61.646;24.704;2022-11-20T01:12:40;-3.90;99.90
45715;DHT22;31430;61.646;24.704;2022-11-20T01:15:05;-3.90;99.90
45715;DHT22;31430;61.646;24.704;2022-11-20T01:17:31;-3.80;99.90
45715;DHT22;31430;61.646;24.704;2022-11-20T01:19:57;-3.80;99.90
45715;DHT22;31430;61.646;24.704;2022-11-20T01:22:23;-3.90;99.90
45715;DHT22;31430;61.646;24.704;2022-11-20T01:24:48;-3.90;99.90
45715;DHT22;31430;61.646;24.704;2022-11-20T01:27:14;-3.80;99.90
45715;DHT22;31430;61.646;24.704;2022-11-20T01:29:39;-4.00;99.90
45715;DHT22;31430;61.646;24.704;2022-11-20T01:32:05;-4.00;99.90
45715;DHT22;31430;61.646;24.704;2022-11-20T01:34:31;-4.00;99.90
45715;DHT22;31430;61.646;24.704;2022-11-20T01:36:56;-4.10;99.90
45715;DHT22;31430;61.646;24.704;2022-11-20T01:39:24;-4.10;99.90
45715;DHT22;31430;61.646;24.704;2022-11-20T01:41:52;-4.10;99.90
45715;DHT22;31430;61.646;24.704;2022-11-20T01:44:57;-4.10;99.90
45715;DHT22;31430;61.646;24.704;2022-11-20T01:47:33;-4.10;99.90
45715;DHT22;31430;61.646;24.704;2022-11-20T01:50:18;-4.10;99.90
45715;DHT22;31430;61.646;24.704;2022-11-20T01:52:54;-4.10;99.90
45715;DHT22;31430;61.646;24.704;2022-11-20T01:55:25;-4.10;99.90
45715;DHT22;31430;61.646;24.704;2022-11-20T01:57:51;-4.10;99.90
45715;DHT22;31430;61.646;24.704;2022-11-20T02:00:19;-4.10;99.90
45715;DHT22;31430;61.646;24.704;2022-11-20T02:03:11;-4.10;99.90
45715;DHT22;31430;61.646;24.704;2022-11-20T02:05:44;-4.10;99.90
45715;DHT22;31430;61.646;24.704;2022-11-20T02:08:10;-4.10;99.90
45715;DHT22;31430;61.646;24.704;2022-11-20T02:10:37;-4.10;99.90
45715;DHT22;31430;61.646;24.704;2022-11-20T02:13:03;-4.10;99.90
45715;DHT22;31430;61.646;24.704;2022-11-20T02:15:47;-4.20;99.90
45715;DHT22;31430;61.646;24.704;2022-11-20T02:18:19;-4.10;99.90
45715;DHT22;31430;61.646;24.704;2022-11-20T02:20:47;-4.10;99.90
45715;DHT22;31430;61.646;24.704;2022-11-20T02:26:06;-4.10;99.90
45715;DHT22;31430;61.646;24.704;2022-11-20T02:28:33;-4.00;99.90
45715;DHT22;31430;61.646;24.704;2022-11-20T02:30:59;-4.00;99.90
45715;DHT22;31430;61.646;24.704;2022-11-20T02:33:25;-4.00;99.90
45715;DHT22;31430;61.646;24.704;2022-11-20T02:35:51;-4.00;99.90
45715;DHT22;31430;61.646;24.704;2022-11-20T02:38:17;-4.00;99.90
45715;DHT22;31430;61.646;24.704;2022-11-20T02:40:43;-3.90;99.90
45715;DHT22;31430;61.646;24.704;2022-11-20T02:43:09;-3.90;99.90
45715;DHT22;31430;61.646;24.704;2022-11-20T02:45:35;-3.90;99.90
45715;DHT22;31430;61.646;24.704;2022-11-20T02:48:01;-3.80;99.90
45715;DHT22;31430;61.646;24.704;2022-11-20T02:50:27;-3.90;99.90
45715;DHT22;31430;61.646;24.704;2022-11-20T02:52:52;-3.90;99.90
45715;DHT22;31430;61.646;24.704;2022-11-20T02:55:18;-3.90;99.90
45715;DHT22;31430;61.646;24.704;2022-11-20T02:57:44;-3.90;99.90
45715;DHT22;31430;61.646;24.704;2022-11-20T03:00:10;-3.80;99.90
45715;DHT22;31430;61.646;24.704;2022-11-20T03:02:36;-3.90;99.90
45715;DHT22;31430;61.646;24.704;2022-11-20T03:05:02;-3.90;99.90
45715;DHT22;31430;61.646;24.704;2022-11-20T03:07:28;-3.90;99.90
45715;DHT22;31430;61.646;24.704;2022-11-20T03:09:53;-3.80;99.90
45715;DHT22;31430;61.646;24.704;2022-11-20T03:12:19;-3.80;99.90
45715;DHT22;31430;61.646;24.704;2022-11-20T03:14:45;-3.80;99.90
45715;DHT22;31430;61.646;24.704;2022-11-20T03:17:10;-3.80;99.90
45715;DHT22;31430;61.646;24.704;2022-11-20T03:19:36;-3.80;99.90
45715;DHT22;31430;61.646;24.704;2022-11-20T03:22:02;-3.80;99.90
45715;DHT22;31430;61.646;24.704;2022-11-20T03:24:28;-3.80;99.90
45715;DHT22;31430;61.646;24.704;2022-11-20T03:26:54;-3.90;99.90
45715;DHT22;31430;61.646;24.704;2022-11-20T03:29:19;-3.90;99.90
45715;DHT22;31430;61.646;24.704;2022-11-20T03:31:45;-4.10;99.90
45715;DHT22;31430;61.646;24.704;2022-11-20T03:34:11;-4.00;99.90
45715;DHT22;31430;61.646;24.704;2022-11-20T03:36:39;-4.00;99.90
45715;DHT22;31430;61.646;24.704;2022-11-20T03:39:05;-4.10;99.90
45715;DHT22;31430;61.646;24.704;2022-11-20T03:41:35;-4.10;99.90
45715;DHT22;31430;61.646;24.704;2022-11-20T03:44:03;-4.10;99.90
45715;DHT22;31430;61.646;24.704;2022-11-20T03:46:29;-4.10;99.90
45715;DHT22;31430;61.646;24.704;2022-11-20T03:48:55;-4.10;99.90
45715;DHT22;31430;61.646;24.704;2022-11-20T03:51:26;-4.10;99.90
45715;DHT22;31430;61.646;24.704;2022-11-20T03:53:54;-4.00;99.90
45715;DHT22;31430;61.646;24.704;2022-11-20T03:56:24;-4.10;99.90
45715;DHT22;31430;61.646;24.704;2022-11-20T03:58:50;-4.00;99.90
45715;DHT22;31430;61.646;24.704;2022-11-20T04:01:21;-4.00;99.90
45715;DHT22;31430;61.646;24.704;2022-11-20T04:03:47;-4.00;99.90
45715;DHT22;31430;61.646;24.704;2022-11-20T04:06:18;-4.10;99.90
45715;DHT22;31430;61.646;24.704;2022-11-20T04:08:44;-4.00;99.90
45715;DHT22;31430;61.646;24.704;2022-11-20T04:11:12;-3.90;99.90
45715;DHT22;31430;61.646;24.704;2022-11-20T04:13:38;-4.00;99.90
45715;DHT22;31430;61.646;24.704;2022-11-20T04:16:05;-4.00;99.90
45715;DHT22;31430;61.646;24.704;2022-11-20T04:18:31;-4.00;99.90
45715;DHT22;31430;61.646;24.704;2022-11-20T04:20:57;-4.00;99.90
45715;DHT22;31430;61.646;24.704;2022-11-20T04:23:23;-4.00;99.90
45715;DHT22;31430;61.646;24.704;2022-11-20T04:25:49;-4.00;99.90
45715;DHT22;31430;61.646;24.704;2022-11-20T04:28:14;-4.00;99.90
45715;DHT22;31430;61.646;24.704;2022-11-20T04:30:40;-4.00;99.90
45715;DHT22;31430;61.646;24.704;2022-11-20T04:33:06;-4.10;99.90
45715;DHT22;31430;61.646;24.704;2022-11-20T04:35:34;-4.10;99.90
45715;DHT22;31430;61.646;24.704;2022-11-20T04:38:00;-4.10;99.90
45715;DHT22;31430;61.646;24.704;2022-11-20T04:40:25;-3.90;99.90
45715;DHT22;31430;61.646;24.704;2022-11-20T04:42:51;-4.00;99.90
45715;DHT22;31430;61.646;24.704;2022-11-20T04:45:17;-3.90;99.90
45715;DHT22;31430;61.646;24.704;2022-11-20T04:47:42;-4.00;99.90
45715;DHT22;31430;61.646;24.704;2022-11-20T04:50:08;-4.00;99.90
45715;DHT22;31430;61.646;24.704;2022-11-20T04:52:35;-4.00;99.90
45715;DHT22;31430;61.646;24.704;2022-11-20T04:55:01;-4.00;99.90
45715;DHT22;31430;61.646;24.704;2022-11-20T04:57:26;-4.00;99.90
45715;DHT22;31430;61.646;24.704;2022-11-20T04:59:52;-4.00;99.90
45715;DHT22;31430;61.646;24.704;2022-11-20T05:02:18;-4.00;99.90
45715;DHT22;31430;61.646;24.704;2022-11-20T05:04:43;-3.90;99.90
45715;DHT22;31430;61.646;24.704;2022-11-20T05:07:09;-4.00;99.90
45715;DHT22;31430;61.646;24.704;2022-11-20T05:09:35;-3.90;99.90
45715;DHT22;31430;61.646;24.704;2022-11-20T05:12:00;-3.90;99.90
45715;DHT22;31430;61.646;24.704;2022-11-20T05:14:26;-3.90;99.90
45715;DHT22;31430;61.646;24.704;2022-11-20T05:16:51;-4.00;99.90
45715;DHT22;31430;61.646;24.704;2022-11-20T05:19:17;-4.00;99.90
45715;DHT22;31430;61.646;24.704;2022-11-20T05:21:43;-4.00;99.90
45715;DHT22;31430;61.646;24.704;2022-11-20T05:24:08;-4.00;99.90
45715;DHT22;31430;61.646;24.704;2022-11-20T05:26:34;-4.00;99.90
45715;DHT22;31430;61.646;24.704;2022-11-20T05:29:00;-3.90;99.90
45715;DHT22;31430;61.646;24.704;2022-11-20T05:31:25;-3.90;99.90
45715;DHT22;31430;61.646;24.704;2022-11-20T05:33:51;-3.80;99.90
45715;DHT22;31430;61.646;24.704;2022-11-20T05:36:17;-3.80;99.90
45715;DHT22;31430;61.646;24.704;2022-11-20T05:38:44;-3.90;99.90
45715;DHT22;31430;61.646;24.704;2022-11-20T05:41:11;-3.90;99.90
45715;DHT22;31430;61.646;24.704;2022-11-20T05:43:39;-3.90;99.90
45715;DHT22;31430;61.646;24.704;2022-11-20T05:46:06;-3.80;99.90
45715;DHT22;31430;61.646;24.704;2022-11-20T05:48:33;-3.80;99.90
45715;DHT22;31430;61.646;24.704;2022-11-20T05:51:01;-3.80;99.90
45715;DHT22;31430;61.646;24.704;2022-11-20T05:53:27;-3.80;99.90
45715;DHT22;31430;61.646;24.704;2022-11-20T05:56:04;-3.70;99.90
45715;DHT22;31430;61.646;24.704;2022-11-20T05:58:31;-3.70;99.90
45715;DHT22;31430;61.646;24.704;2022-11-20T06:01:15;-3.70;99.90
45715;DHT22;31430;61.646;24.704;2022-11-20T06:03:42;-3.70;99.90
45715;DHT22;31430;61.646;24.704;2022-11-20T06:06:11;-3.60;99.90
45715;DHT22;31430;61.646;24.704;2022-11-20T06:08:37;-3.50;99.90
45715;DHT22;31430;61.646;24.704;2022-11-20T06:11:07;-3.50;99.90
45715;DHT22;31430;61.646;24.704;2022-11-20T06:13:33;-3.50;99.90
45715;DHT22;31430;61.646;24.704;2022-11-20T06:15:59;-3.50;99.90
45715;DHT22;31430;61.646;24.704;2022-11-20T06:18:29;-3.50;99.90
45715;DHT22;31430;61.646;24.704;2022-11-20T06:21:05;-3.60;99.90
45715;DHT22;31430;61.646;24.704;2022-11-20T06:23:32;-3.50;99.90
45715;DHT22;31430;61.646;24.704;2022-11-20T06:26:03;-3.60;99.90
45715;DHT22;31430;61.646;24.704;2022-11-20T06:28:29;-3.60;99.90
45715;DHT22;31430;61.646;24.704;2022-11-20T06:30:54;-3.50;99.90
45715;DHT22;31430;61.646;24.704;2022-11-20T06:33:20;-3.50;99.90
45715;DHT22;31430;61.646;24.704;2022-11-20T06:35:45;-3.60;99.90
45715;DHT22;31430;61.646;24.704;2022-11-20T06:38:11;-3.60;99.90
45715;DHT22;31430;61.646;24.704;2022-11-20T06:40:40;-3.50;99.90
45715;DHT22;31430;61.646;24.704;2022-11-20T06:43:06;-3.50;99.90
45715;DHT22;31430;61.646;24.704;2022-11-20T06:45:31;-3.50;99.90
45715;DHT22;31430;61.646;24.704;2022-11-20T06:47:57;-3.50;99.90
45715;DHT22;31430;61.646;24.704;2022-11-20T06:50:23;-3.50;99.90
45715;DHT22;31430;61.646;24.704;2022-11-20T06:52:49;-3.60;99.90
45715;DHT22;31430;61.646;24.704;2022-11-20T06:55:15;-3.60;99.90
45715;DHT22;31430;61.646;24.704;2022-11-20T06:57:41;-3.60;99.90
45715;DHT22;31430;61.646;24.704;2022-11-20T07:00:07;-3.60;99.90
45715;DHT22;31430;61.646;24.704;2022-11-20T07:02:32;-3.50;99.90
45715;DHT22;31430;61.646;24.704;2022-11-20T07:04:58;-3.50;99.90
45715;DHT22;31430;61.646;24.704;2022-11-20T07:07:24;-3.60;99.90
45715;DHT22;31430;61.646;24.704;2022-11-20T07:09:49;-3.60;99.90
45715;DHT22;31430;61.646;24.704;2022-11-20T07:12:15;-3.50;99.90
45715;DHT22;31430;61.646;24.704;2022-11-20T07:14:41;-3.60;99.90
45715;DHT22;31430;61.646;24.704;2022-11-20T07:17:06;-3.50;99.90
45715;DHT22;31430;61.646;24.704;2022-11-20T07:19:32;-3.50;99.90
45715;DHT22;31430;61.646;24.704;2022-11-20T07:21:58;-3.60;99.90
45715;DHT22;31430;61.646;24.704;2022-11-20T07:24:23;-3.50;99.90
45715;DHT22;31430;61.646;24.704;2022-11-20T07:26:49;-3.50;99.90
45715;DHT22;31430;61.646;24.704;2022-11-20T07:29:16;-3.60;99.90
45715;DHT22;31430;61.646;24.704;2022-11-20T07:31:42;-3.50;99.90
45715;DHT22;31430;61.646;24.704;2022-11-20T07:34:08;-3.50;99.90
45715;DHT22;31430;61.646;24.704;2022-11-20T07:36:34;-3.50;99.90
45715;DHT22;31430;61.646;24.704;2022-11-20T07:39:00;-3.50;99.90
45715;DHT22;31430;61.646;24.704;2022-11-20T07:41:25;-3.60;99.90
45715;DHT22;31430;61.646;24.704;2022-11-20T07:43:51;-3.50;99.90
45715;DHT22;31430;61.646;24.704;2022-11-20T07:46:17;-3.50;99.90
45715;DHT22;31430;61.646;24.704;2022-11-20T07:48:42;-3.40;99.90
45715;DHT22;31430;61.646;24.704;2022-11-20T07:51:08;-3.50;99.90
45715;DHT22;31430;61.646;24.704;2022-11-20T07:53:34;-3.50;99.90
45715;DHT22;31430;61.646;24.704;2022-11-20T07:56:00;-3.50;99.90
45715;DHT22;31430;61.646;24.704;2022-11-20T07:58:27;-3.60;99.90
45715;DHT22;31430;61.646;24.704;2022-11-20T08:00:53;-3.60;99.90
45715;DHT22;31430;61.646;24.704;2022-11-20T08:03:19;-3.60;99.90
45715;DHT22;31430;61.646;24.704;2022-11-20T08:05:45;-3.60;99.90
45715;DHT22;31430;61.646;24.704;2022-11-20T08:08:10;-3.60;99.90
45715;DHT22;31430;61.646;24.704;2022-11-20T08:10:36;-3.60;99.90
45715;DHT22;31430;61.646;24.704;2022-11-20T08:13:02;-3.60;99.90
45715;DHT22;31430;61.646;24.704;2022-11-20T08:15:50;-3.60;99.90
45715;DHT22;31430;61.646;24.704;2022-11-20T08:18:19;-3.50;99.90
45715;DHT22;31430;61.646;24.704;2022-11-20T08:20:44;-3.60;99.90
45715;DHT22;31430;61.646;24.704;2022-11-20T08:23:11;-3.60;99.90
45715;DHT22;31430;61.646;24.704;2022-11-20T08:25:37;-3.50;99.90
45715;DHT22;31430;61.646;24.704;2022-11-20T08:28:06;-3.40;99.90
45715;DHT22;31430;61.646;24.704;2022-11-20T08:30:32;-3.40;99.90
45715;DHT22;31430;61.646;24.704;2022-11-20T08:33:06;-3.40;99.90
45715;DHT22;31430;61.646;24.704;2022-11-20T08:35:34;-3.40;99.90
45715;DHT22;31430;61.646;24.704;2022-11-20T08:38:01;-3.30;99.90
45715;DHT22;31430;61.646;24.704;2022-11-20T08:40:27;-3.40;99.90
45715;DHT22;31430;61.646;24.704;2022-11-20T08:42:53;-3.40;99.90
45715;DHT22;31430;61.646;24.704;2022-11-20T08:45:19;-3.30;99.90
45715;DHT22;31430;61.646;24.704;2022-11-20T08:47:45;-3.30;99.90
45715;DHT22;31430;61.646;24.704;2022-11-20T08:50:12;-3.40;99.90
45715;DHT22;31430;61.646;24.704;2022-11-20T08:52:38;-3.40;99.90
45715;DHT22;31430;61.646;24.704;2022-11-20T08:55:05;-3.40;99.90
45715;DHT22;31430;61.646;24.704;2022-11-20T08:57:34;-3.50;99.90
45715;DHT22;31430;61.646;24.704;2022-11-20T09:00:00;-3.40;99.90
45715;DHT22;31430;61.646;24.704;2022-11-20T09:02:26;-3.50;99.90
45715;DHT22;31430;61.646;24.704;2022-11-20T09:04:52;-3.40;99.90
45715;DHT22;31430;61.646;24.704;2022-11-20T09:07:19;-3.40;99.90
45715;DHT22;31430;61.646;24.704;2022-11-20T09:09:44;-3.40;99.90
45715;DHT22;31430;61.646;24.704;2022-11-20T09:12:10;-3.40;99.90
45715;DHT22;31430;61.646;24.704;2022-11-20T09:14:36;-3.40;99.90
45715;DHT22;31430;61.646;24.704;2022-11-20T09:17:01;-3.40;99.90
45715;DHT22;31430;61.646;24.704;2022-11-20T09:19:27;-3.30;99.90
45715;DHT22;31430;61.646;24.704;2022-11-20T09:21:53;-3.30;99.90
45715;DHT22;31430;61.646;24.704;2022-11-20T09:24:19;-3.40;99.90
45715;DHT22;31430;61.646;24.704;2022-11-20T09:26:46;-3.40;99.90
45715;DHT22;31430;61.646;24.704;2022-11-20T09:29:12;-3.40;99.90
45715;DHT22;31430;61.646;24.704;2022-11-20T09:31:38;-3.30;99.90
45715;DHT22;31430;61.646;24.704;2022-11-20T09:34:04;-3.50;99.90
45715;DHT22;31430;61.646;24.704;2022-11-20T09:36:29;-3.40;99.90
45715;DHT22;31430;61.646;24.704;2022-11-20T09:38:55;-3.40;99.90
45715;DHT22;31430;61.646;24.704;2022-11-20T09:41:45;-3.40;99.90
45715;DHT22;31430;61.646;24.704;2022-11-20T09:44:48;-3.30;99.90
45715;DHT22;31430;61.646;24.704;2022-11-20T09:47:37;-3.20;99.90
45715;DHT22;31430;61.646;24.704;2022-11-20T09:55:36;-3.20;99.90
45715;DHT22;31430;61.646;24.704;2022-11-20T09:58:06;-3.10;99.90
45715;DHT22;31430;61.646;24.704;2022-11-20T10:00:34;-3.10;99.90
45715;DHT22;31430;61.646;24.704;2022-11-20T10:03:01;-3.00;99.90
45715;DHT22;31430;61.646;24.704;2022-11-20T10:05:36;-3.10;99.90
45715;DHT22;31430;61.646;24.704;2022-11-20T10:08:16;-3.00;99.90
45715;DHT22;31430;61.646;24.704;2022-11-20T10:10:48;-3.00;99.90
45715;DHT22;31430;61.646;24.704;2022-11-20T10:26:22;-3.40;99.90
45715;DHT22;31430;61.646;24.704;2022-11-20T10:29:15;-3.40;99.90
45715;DHT22;31430;61.646;24.704;2022-11-20T10:31:43;-3.40;99.90
45715;DHT22;31430;61.646;24.704;2022-11-20T10:34:26;-3.30;99.90
45715;DHT22;31430;61.646;24.704;2022-11-20T10:37:13;-3.20;99.90
45715;DHT22;31430;61.646;24.704;2022-11-20T10:39:49;-3.30;99.90
45715;DHT22;31430;61.646;24.704;2022-11-20T10:42:26;-3.20;99.90
45715;DHT22;31430;61.646;24.704;2022-11-20T10:45:01;-3.30;99.90
45715;DHT22;31430;61.646;24.704;2022-11-20T10:47:30;-3.20;99.90
45715;DHT22;31430;61.646;24.704;2022-11-20T10:50:02;-3.20;99.90
45715;DHT22;31430;61.646;24.704;2022-11-20T11:00:11;-3.10;99.90
45715;DHT22;31430;61.646;24.704;2022-11-20T11:03:07;-3.20;99.90
45715;DHT22;31430;61.646;24.704;2022-11-20T11:05:43;-3.20;99.90
45715;DHT22;31430;61.646;24.704;2022-11-20T11:08:17;-3.20;99.90
45715;DHT22;31430;61.646;24.704;2022-11-20T11:13:26;-3.20;99.90
45715;DHT22;31430;61.646;24.704;2022-11-20T11:15:53;-3.30;99.90
45715;DHT22;31430;61.646;24.704;2022-11-20T11:18:28;-3.30;99.90
45715;DHT22;31430;61.646;24.704;2022-11-20T11:21:02;-3.20;99.90
45715;DHT22;31430;61.646;24.704;2022-11-20T11:23:42;-3.30;99.90
45715;DHT22;31430;61.646;24.704;2022-11-20T11:26:22;-3.30;99.90
45715;DHT22;31430;61.646;24.704;2022-11-20T11:28:59;-3.30;99.90
45715;DHT22;31430;61.646;24.704;2022-11-20T11:31:30;-3.30;99.90
45715;DHT22;31430;61.646;24.704;2022-11-20T11:34:16;-3.30;99.90
45715;DHT22;31430;61.646;24.704;2022-11-20T11:36:49;-3.30;99.90
45715;DHT22;31430;61.646;24.704;2022-11-20T11:39:19;-3.30;99.90
45715;DHT22;31430;61.646;24.704;2022-11-20T11:41:46;-3.40;99.90
45715;DHT22;31430;61.646;24.704;2022-11-20T11:44:22;-3.40;99.90
45715;DHT22;31430;61.646;24.704;2022-11-20T11:47:22;-3.40;99.90
45715;DHT22;31430;61.646;24.704;2022-11-20T11:49:49;-3.30;99.90
45715;DHT22;31430;61.646;24.704;2022-11-20T11:52:15;-3.30;99.90
45715;DHT22;31430;61.646;24.704;2022-11-20T11:54:50;-3.40;99.90
45715;DHT22;31430;61.646;24.704;2022-11-20T12:00:10;-3.30;99.90
45715;DHT22;31430;61.646;24.704;2022-11-20T12:07:51;-3.40;99.90
45715;DHT22;31430;61.646;24.704;2022-11-20T12:10:39;-3.40;99.90
45715;DHT22;31430;61.646;24.704;2022-11-20T12:15:56;-3.40;99.90
45715;DHT22;31430;61.646;24.704;2022-11-20T12:18:22;-3.40;99.90
45715;DHT22;31430;61.646;24.704;2022-11-20T12:23:44;-3.30;99.90
45715;DHT22;31430;61.646;24.704;2022-11-20T12:29:08;-3.20;99.90
45715;DHT22;31430;61.646;24.704;2022-11-20T12:34:19;-3.10;99.90
45715;DHT22;31430;61.646;24.704;2022-11-20T12:39:41;-3.20;99.90
45715;DHT22;31430;61.646;24.704;2022-11-20T12:45:17;-3.30;99.90
45715;DHT22;31430;61.646;24.704;2022-11-20T12:53:34;-3.10;99.90
45715;DHT22;31430;61.646;24.704;2022-11-20T13:06:52;-3.20;99.90
45715;DHT22;31430;61.646;24.704;2022-11-20T13:09:20;-3.30;99.90
45715;DHT22;31430;61.646;24.704;2022-11-20T13:14:40;-3.20;99.90
45715;DHT22;31430;61.646;24.704;2022-11-20T13:17:22;-3.30;99.90
45715;DHT22;31430;61.646;24.704;2022-11-20T13:19:54;-3.20;99.90
45715;DHT22;31430;61.646;24.704;2022-11-20T13:22:31;-3.30;99.90
45715;DHT22;31430;61.646;24.704;2022-11-20T13:25:10;-3.30;99.90
45715;DHT22;31430;61.646;24.704;2022-11-20T13:27:35;-3.20;99.90
45715;DHT22;31430;61.646;24.704;2022-11-20T13:30:14;-3.20;99.90
45715;DHT22;31430;61.646;24.704;2022-11-20T13:32:56;-3.20;99.90
45715;DHT22;31430;61.646;24.704;2022-11-20T13:40:31;-3.30;99.90
45715;DHT22;31430;61.646;24.704;2022-11-20T13:43:18;-3.30;99.90
45715;DHT22;31430;61.646;24.704;2022-11-20T13:45:59;-3.30;99.90
45715;DHT22;31430;61.646;24.704;2022-11-20T13:48:29;-3.20;99.90
45715;DHT22;31430;61.646;24.704;2022-11-20T13:59:57;-3.20;99.90
45715;DHT22;31430;61.646;24.704;2022-11-20T14:02:26;-3.20;99.90
45715;DHT22;31430;61.646;24.704;2022-11-20T14:04:54;-3.20;99.90
45715;DHT22;31430;61.646;24.704;2022-11-20T14:07:25;-3.20;99.90
45715;DHT22;31430;61.646;24.704;2022-11-20T14:09:56;-3.20;99.90
45715;DHT22;31430;61.646;24.704;2022-11-20T14:12:29;-3.20;99.90
45715;DHT22;31430;61.646;24.704;2022-11-20T14:14:55;-3.10;99.90
45715;DHT22;31430;61.646;24.704;2022-11-20T14:17:22;-3.20;99.90
45715;DHT22;31430;61.646;24.704;2022-11-20T14:19:50;-3.20;99.90
45715;DHT22;31430;61.646;24.704;2022-11-20T14:22:27;-3.20;99.90
45715;DHT22;31430;61.646;24.704;2022-11-20T14:25:17;-3.30;99.90
45715;DHT22;31430;61.646;24.704;2022-11-20T14:27:54;-3.20;99.90
45715;DHT22;31430;61.646;24.704;2022-11-20T14:30:44;-3.20;99.90
45715;DHT22;31430;61.646;24.704;2022-11-20T14:33:12;-3.30;99.90
45715;DHT22;31430;61.646;24.704;2022-11-20T14:35:46;-3.30;99.90
45715;DHT22;31430;61.646;24.704;2022-11-20T14:38:16;-3.20;99.90
45715;DHT22;31430;61.646;24.704;2022-11-20T14:40:43;-3.20;99.90
45715;DHT22;31430;61.646;24.704;2022-11-20T14:43:22;-3.20;99.90
45715;DHT22;31430;61.646;24.704;2022-11-20T14:45:59;-3.20;99.90
45715;DHT22;31430;61.646;24.704;2022-11-20T14:48:30;-3.30;99.90
45715;DHT22;31430;61.646;24.704;2022-11-20T14:50:57;-3.30;99.90
45715;DHT22;31430;61.646;24.704;2022-11-20T14:53:24;-3.40;99.90
45715;DHT22;31430;61.646;24.704;2022-11-20T14:56:01;-3.30;99.90
45715;DHT22;31430;61.646;24.704;2022-11-20T14:58:32;-3.30;99.90
45715;DHT22;31430;61.646;24.704;2022-11-20T15:01:04;-3.20;99.90
45715;DHT22;31430;61.646;24.704;2022-11-20T15:03:38;-3.20;99.90
45715;DHT22;31430;61.646;24.704;2022-11-20T15:06:06;-3.30;99.90
45715;DHT22;31430;61.646;24.704;2022-11-20T15:08:34;-3.40;99.90
45715;DHT22;31430;61.646;24.704;2022-11-20T15:11:01;-3.30;99.90
45715;DHT22;31430;61.646;24.704;2022-11-20T15:15:58;-3.40;99.90
45715;DHT22;31430;61.646;24.704;2022-11-20T15:18:29;-3.30;99.90
45715;DHT22;31430;61.646;24.704;2022-11-20T15:20:56;-3.30;99.90
45715;DHT22;31430;61.646;24.704;2022-11-20T15:23:23;-3.30;99.90
45715;DHT22;31430;61.646;24.704;2022-11-20T15:25:49;-3.30;99.90
45715;DHT22;31430;61.646;24.704;2022-11-20T15:28:25;-3.30;99.90
45715;DHT22;31430;61.646;24.704;2022-11-20T15:30:52;-3.40;99.90
45715;DHT22;31430;61.646;24.704;2022-11-20T15:33:18;-3.40;99.90
45715;DHT22;31430;61.646;24.704;2022-11-20T15:35:44;-3.40;99.90
45715;DHT22;31430;61.646;24.704;2022-11-20T15:38:10;-3.40;99.90
45715;DHT22;31430;61.646;24.704;2022-11-20T15:40:36;-3.40;99.90
45715;DHT22;31430;61.646;24.704;2022-11-20T15:43:02;-3.40;99.90
45715;DHT22;31430;61.646;24.704;2022-11-20T15:45:37;-3.30;99.90
45715;DHT22;31430;61.646;24.704;2022-11-20T15:48:09;-3.30;99.90
45715;DHT22;31430;61.646;24.704;2022-11-20T15:50:38;-3.40;99.90
45715;DHT22;31430;61.646;24.704;2022-11-20T15:53:09;-3.40;99.90
45715;DHT22;31430;61.646;24.704;2022-11-20T15:55:35;-3.40;99.90
45715;DHT22;31430;61.646;24.704;2022-11-20T15:58:00;-3.40;99.90
45715;DHT22;31430;61.646;24.704;2022-11-20T16:00:26;-3.40;99.90
45715;DHT22;31430;61.646;24.704;2022-11-20T16:02:52;-3.30;99.90
45715;DHT22;31430;61.646;24.704;2022-11-20T16:05:17;-3.20;99.90
45715;DHT22;31430;61.646;24.704;2022-11-20T16:07:43;-3.30;99.90
45715;DHT22;31430;61.646;24.704;2022-11-20T16:10:09;-3.30;99.90
45715;DHT22;31430;61.646;24.704;2022-11-20T16:12:34;-3.20;99.90
45715;DHT22;31430;61.646;24.704;2022-11-20T16:15:19;-3.30;99.90
45715;DHT22;31430;61.646;24.704;2022-11-20T16:18:03;-3.20;99.90
45715;DHT22;31430;61.646;24.704;2022-11-20T16:20:29;-3.20;99.90
45715;DHT22;31430;61.646;24.704;2022-11-20T16:22:54;-3.10;99.90
45715;DHT22;31430;61.646;24.704;2022-11-20T16:25:20;-3.10;99.90
45715;DHT22;31430;61.646;24.704;2022-11-20T16:27:46;-3.20;99.90
45715;DHT22;31430;61.646;24.704;2022-11-20T16:30:13;-3.10;99.90
45715;DHT22;31430;61.646;24.704;2022-11-20T16:32:38;-3.20;99.90
45715;DHT22;31430;61.646;24.704;2022-11-20T16:35:04;-3.10;99.90
45715;DHT22;31430;61.646;24.704;2022-11-20T16:37:32;-3.10;99.90
45715;DHT22;31430;61.646;24.704;2022-11-20T16:39:58;-3.20;99.90
45715;DHT22;31430;61.646;24.704;2022-11-20T16:42:23;-3.10;99.90
45715;DHT22;31430;61.646;24.704;2022-11-20T16:44:49;-3.10;99.90
45715;DHT22;31430;61.646;24.704;2022-11-20T16:47:15;-3.10;99.90
45715;DHT22;31430;61.646;24.704;2022-11-20T16:49:40;-3.10;99.90
45715;DHT22;31430;61.646;24.704;2022-11-20T16:52:07;-3.00;99.90
45715;DHT22;31430;61.646;24.704;2022-11-20T16:54:33;-3.10;99.90
45715;DHT22;31430;61.646;24.704;2022-11-20T16:56:59;-3.10;99.90
45715;DHT22;31430;61.646;24.704;2022-11-20T16:59:24;-3.00;99.90